Time;durP1;ratioP1;P1;durP2;ratioP2;P2;SDS_P1;SDS_P2;PMS_P1;PMS_P2;Temp;Humidity;BMP_temperature;BMP_pressure;BME280_temperature;BME280_humidity;BME280_pressure;Samples;Min_cycle;Max_cycle;Signal;HPM_P1;HPM_P2
2022/04/15 00:02:17;;;;;;;;;4.50;4.50;;;;;17.45;43.44;101896.47;4999569;28;45370;-63
2022/04/15 00:04:42;;;;;;;;;5.00;5.00;;;;;17.41;43.31;101897.44;5001055;28;45377;-64
2022/04/15 00:07:08;;;;;;;;;4.50;4.50;;;;;17.42;43.41;101907.16;5000766;28;45177;-63
2022/04/15 00:09:35;;;;;;;;;3.00;3.00;;;;;17.34;43.25;101894.06;5000656;28;47201;-64
2022/04/15 00:12:06;;;;;;;;;4.50;3.25;;;;;17.36;43.48;101902.88;5000538;28;45296;-63
2022/04/15 00:14:34;;;;;;;;;5.00;5.00;;;;;17.33;43.45;101900.28;4999307;28;45273;-63
2022/04/15 00:16:59;;;;;;;;;0.00;0.00;;;;;17.30;43.47;101903.88;5000680;28;45509;-64
2022/04/15 00:19:25;;;;;;;;;5.00;5.00;;;;;17.28;43.45;101897.75;4999930;28;45271;-64
2022/04/15 00:21:50;;;;;;;;;5.00;5.00;;;;;17.25;43.56;101899.63;5000477;28;45626;-63
2022/04/15 00:24:16;;;;;;;;;4.00;4.00;;;;;17.25;43.54;101903.13;4999437;28;45468;-63
2022/04/15 00:26:41;;;;;;;;;4.75;4.75;;;;;17.22;43.71;101900.56;5000466;28;45294;-64
2022/04/15 00:29:06;;;;;;;;;5.00;5.00;;;;;17.20;43.86;101903.22;5000397;28;46049;-63
2022/04/15 00:31:33;;;;;;;;;4.00;4.00;;;;;17.20;43.50;101908.53;4999290;28;45467;-63
2022/04/15 00:33:58;;;;;;;;;3.25;3.25;;;;;17.17;43.88;101905.97;5000655;28;45246;-63
2022/04/15 00:36:24;;;;;;;;;5.00;4.00;;;;;17.16;44.08;101895.38;5000417;28;45236;-63
2022/04/15 00:38:49;;;;;;;;;6.25;5.25;;;;;17.11;44.02;101899.94;5000503;28;45238;-63
2022/04/15 00:41:15;;;;;;;;;3.50;3.25;;;;;17.13;44.12;101900.75;5000286;28;45402;-63
2022/04/15 00:43:41;;;;;;;;;8.00;4.25;;;;;17.10;43.94;101900.84;5000571;28;45372;-63
2022/04/15 00:46:10;;;;;;;;;7.50;6.00;;;;;17.07;44.04;101901.78;4999917;28;45297;-63
2022/04/15 00:48:36;;;;;;;;;4.25;4.25;;;;;17.02;44.08;101893.91;5000347;28;46067;-64
2022/04/15 00:51:02;;;;;;;;;3.75;3.75;;;;;17.04;44.26;101900.06;5000003;28;45321;-64
2022/04/15 00:53:29;;;;;;;;;6.50;4.00;;;;;17.03;44.16;101900.09;5000347;28;45519;-63
2022/04/15 00:56:01;;;;;;;;;6.00;6.00;;;;;17.02;44.27;101903.69;4999953;28;45388;-63
2022/04/15 00:58:28;;;;;;;;;8.75;6.25;;;;;17.01;44.31;101896.63;4999841;28;45466;-64
2022/04/15 01:00:55;;;;;;;;;5.00;5.00;;;;;16.97;44.04;101901.13;4999614;28;45475;-63
2022/04/15 01:03:21;;;;;;;;;4.00;4.00;;;;;16.98;44.39;101907.28;5000164;28;45309;-63
2022/04/15 01:05:50;;;;;;;;;4.75;4.75;;;;;16.93;44.54;101902.09;4999897;28;45546;-63
2022/04/15 01:08:19;;;;;;;;;5.00;4.00;;;;;16.94;44.61;101902.97;4999901;28;45300;-63
2022/04/15 01:10:46;;;;;;;;;7.25;6.00;;;;;16.93;44.40;101909.19;4999606;28;45450;-64
2022/04/15 01:13:13;;;;;;;;;4.50;4.50;;;;;16.90;44.45;101905.66;5000074;28;45274;-63
2022/04/15 01:15:39;;;;;;;;;8.50;7.50;;;;;16.89;44.67;101901.25;4999626;28;45195;-64
2022/04/15 01:18:05;;;;;;;;;7.00;7.00;;;;;16.88;44.64;101902.16;4999793;28;46238;-63
2022/04/15 01:20:31;;;;;;;;;5.00;5.00;;;;;16.86;44.65;101914.59;4999689;28;45296;-64
2022/04/15 01:23:11;;;;;;;;;7.25;5.00;;;;;16.82;44.86;101904.94;4999958;28;45373;-64
2022/04/15 01:25:37;;;;;;;;;5.25;5.25;;;;;16.82;44.88;101902.28;4998264;28;45400;-64
2022/04/15 01:28:03;;;;;;;;;5.00;4.00;;;;;16.81;44.49;101911.16;4999519;28;46508;-64
2022/04/15 01:30:29;;;;;;;;;7.00;7.00;;;;;16.80;44.99;101908.53;5001097;28;45289;-64
2022/04/15 01:32:54;;;;;;;;;6.00;6.00;;;;;16.78;44.70;101908.59;5003200;28;45420;-63
2022/04/15 01:35:20;;;;;;;;;7.00;5.00;;;;;16.76;45.00;101910.38;5003389;28;45473;-64
2022/04/15 01:37:47;;;;;;;;;7.75;5.25;;;;;16.74;44.71;101913.09;5003031;28;45326;-64
2022/04/15 01:40:15;;;;;;;;;10.75;7.00;;;;;16.72;44.71;101903.41;5003204;28;45455;-63
2022/04/15 01:42:42;;;;;;;;;8.25;7.50;;;;;16.70;44.97;101903.44;5001735;28;45371;-63
2022/04/15 01:45:09;;;;;;;;;5.00;3.75;;;;;16.68;45.08;101909.69;5002650;28;45416;-63
2022/04/15 01:47:35;;;;;;;;;5.50;5.50;;;;;16.66;45.10;101914.16;5002855;28;45278;-63
2022/04/15 01:50:02;;;;;;;;;6.00;5.25;;;;;16.62;44.87;101904.53;5002999;28;45222;-63
2022/04/15 01:52:27;;;;;;;;;6.00;5.25;;;;;16.61;45.29;101906.28;5002740;28;45366;-64
2022/04/15 01:54:53;;;;;;;;;5.00;5.00;;;;;16.61;44.99;101902.75;5002755;28;45618;-64
2022/04/15 01:57:18;;;;;;;;;5.75;5.50;;;;;16.57;45.07;101908.13;4999473;28;46222;-63
2022/04/15 01:59:43;;;;;;;;;6.00;6.00;;;;;16.56;45.28;101902.84;5002717;28;45515;-64
2022/04/15 02:02:10;;;;;;;;;6.50;6.00;;;;;16.52;44.82;101904.69;5002915;28;45385;-64
2022/04/15 02:04:36;;;;;;;;;6.00;6.00;;;;;16.51;45.43;101902.06;5002798;28;45493;-64
2022/04/15 02:07:02;;;;;;;;;9.00;7.25;;;;;16.49;45.22;101899.47;5002598;28;45415;-64
2022/04/15 02:09:28;;;;;;;;;8.50;7.00;;;;;16.47;45.44;101903.91;5002611;28;45192;-64
2022/04/15 02:11:53;;;;;;;;;7.75;7.25;;;;;16.44;45.21;101901.34;5002704;28;45229;-63
2022/04/15 02:14:19;;;;;;;;;6.00;5.25;;;;;16.43;45.56;101907.53;5002351;28;45297;-64
2022/04/15 02:16:46;;;;;;;;;6.75;6.00;;;;;16.39;45.23;101903.22;5002467;28;46526;-64
2022/04/15 02:19:12;;;;;;;;;5.50;5.50;;;;;16.38;45.19;101902.31;5002237;28;45321;-64
2022/04/15 02:21:38;;;;;;;;;8.50;5.75;;;;;16.33;45.54;101898.03;5001109;28;45349;-64
2022/04/15 02:24:03;;;;;;;;;6.25;5.75;;;;;16.34;45.55;101905.06;5002167;28;46918;-64
2022/04/15 02:26:29;;;;;;;;;3.50;3.50;;;;;16.28;45.57;101900.75;5002362;28;46170;-63
2022/04/15 02:28:54;;;;;;;;;6.50;6.50;;;;;16.29;45.57;101901.63;5001972;28;45230;-64
2022/04/15 02:31:19;;;;;;;;;6.50;5.75;;;;;16.27;45.59;101903.44;5002687;28;45376;-64
2022/04/15 02:33:45;;;;;;;;;6.00;6.00;;;;;16.25;45.59;101912.31;5002186;28;45313;-64
2022/04/15 02:36:10;;;;;;;;;7.75;5.75;;;;;16.21;45.27;101907.97;5002236;28;45361;-64
2022/04/15 02:38:36;;;;;;;;;4.25;4.00;;;;;16.19;45.72;101900.94;5002187;28;45344;-65
2022/04/15 02:41:04;;;;;;;;;5.50;5.50;;;;;16.18;45.50;101909.81;5002075;28;45232;-64
2022/04/15 02:43:33;;;;;;;;;4.00;4.00;;;;;16.15;45.68;101910.75;5000646;28;45374;-64
2022/04/15 02:46:03;;;;;;;;;6.00;5.75;;;;;16.14;45.78;101908.97;5001720;28;45438;-64
2022/04/15 02:48:29;;;;;;;;;6.50;6.50;;;;;16.10;45.77;101902.00;5001928;28;45282;-64
2022/04/15 02:50:55;;;;;;;;;9.75;8.00;;;;;16.08;46.11;101902.00;5000882;28;45250;-64
2022/04/15 02:53:23;;;;;;;;;9.00;7.50;;;;;16.06;46.05;101909.13;5001844;28;45488;-64
2022/04/15 02:55:48;;;;;;;;;6.00;6.00;;;;;16.03;45.86;101910.97;5000369;28;47394;-64
2022/04/15 02:58:13;;;;;;;;;9.00;6.50;;;;;16.00;46.20;101911.91;4998424;28;45456;-64
2022/04/15 03:00:39;;;;;;;;;6.50;6.50;;;;;15.98;46.00;101907.53;5001663;28;45218;-66
2022/04/15 03:03:04;;;;;;;;;9.25;8.75;;;;;15.95;46.38;101912.88;5002001;28;45355;-66
2022/04/15 03:05:30;;;;;;;;;6.00;6.00;;;;;15.92;46.55;101905.84;5001605;28;45476;-64
2022/04/15 03:07:55;;;;;;;;;6.00;6.00;;;;;15.89;45.92;101914.72;5000583;28;45350;-64
2022/04/15 03:10:21;;;;;;;;;8.75;8.00;;;;;15.87;46.12;101910.34;5001552;28;45341;-63
2022/04/15 03:12:46;;;;;;;;;6.25;6.25;;;;;15.83;46.23;101914.84;5001708;28;45541;-64
2022/04/15 03:15:12;;;;;;;;;7.25;6.00;;;;;15.79;46.29;101909.59;5001249;28;45992;-64
2022/04/15 03:17:37;;;;;;;;;7.00;6.50;;;;;15.77;46.21;101910.50;5000658;28;45255;-65
2022/04/15 03:20:04;;;;;;;;;5.75;5.75;;;;;15.76;46.26;101910.53;5000286;28;45253;-64
2022/04/15 03:22:34;;;;;;;;;6.50;6.50;;;;;15.72;46.58;101911.47;5001419;28;45262;-64
2022/04/15 03:25:00;;;;;;;;;8.00;7.00;;;;;15.72;46.58;101914.13;5001269;28;47229;-64
2022/04/15 03:27:26;;;;;;;;;6.75;6.75;;;;;15.70;46.63;101915.94;5001450;28;45250;-65
2022/04/15 03:29:51;;;;;;;;;6.75;6.75;;;;;15.66;46.10;101919.50;5001342;28;45459;-65
2022/04/15 03:32:17;;;;;;;;;7.25;7.25;;;;;15.65;46.41;101912.50;5000261;28;45486;-66
2022/04/15 03:34:42;;;;;;;;;6.25;6.00;;;;;15.61;46.45;101903.72;5001208;28;46055;-66
2022/04/15 03:37:08;;;;;;;;;7.00;6.25;;;;;15.62;46.25;101920.47;5000069;28;45258;-67
2022/04/15 03:39:33;;;;;;;;;8.00;7.00;;;;;15.61;46.33;101919.63;5000177;28;45404;-66
2022/04/15 03:41:58;;;;;;;;;8.75;7.50;;;;;15.59;46.78;101921.41;5001422;28;45376;-66
2022/04/15 03:44:24;;;;;;;;;6.75;6.75;;;;;15.56;46.79;101921.47;5000840;28;46243;-66
2022/04/15 03:46:49;;;;;;;;;10.00;7.75;;;;;15.56;46.72;101924.97;5001105;28;45164;-66
2022/04/15 03:49:14;;;;;;;;;10.25;7.75;;;;;15.53;46.94;101919.72;4999990;28;45434;-66
2022/04/15 03:51:40;;;;;;;;;7.50;6.75;;;;;15.52;46.91;101914.44;5001186;28;45317;-65
2022/04/15 03:54:05;;;;;;;;;6.75;6.75;;;;;15.50;46.90;101922.41;4999705;28;46304;-65
2022/04/15 03:56:32;;;;;;;;;3.75;3.75;;;;;15.46;47.02;101920.72;5001263;28;45253;-65
2022/04/15 03:58:57;;;;;;;;;7.00;7.00;;;;;15.47;46.58;101922.50;5000656;28;45473;-64
2022/04/15 04:01:24;;;;;;;;;7.00;7.00;;;;;15.46;46.62;101925.13;5000932;28;45399;-65
2022/04/15 04:03:50;;;;;;;;;7.75;7.75;;;;;15.45;46.65;101926.91;5000785;28;45608;-66
2022/04/15 04:06:15;;;;;;;;;7.00;7.00;;;;;15.43;47.21;101923.41;5000658;28;45402;-63
2022/04/15 04:08:49;;;;;;;;;4.50;4.50;;;;;15.41;47.19;101933.19;4999698;28;45346;-63
2022/04/15 04:11:14;;;;;;;;;7.50;5.25;;;;;15.40;47.23;101939.38;5000662;28;45337;-63
2022/04/15 04:13:41;;;;;;;;;4.00;1.00;;;;;15.38;47.23;101943.78;5000506;28;46439;-64
2022/04/15 04:16:07;;;;;;;;;8.50;7.00;;;;;15.33;47.14;101940.34;5000573;28;45301;-65
2022/04/15 04:18:32;;;;;;;;;7.00;6.50;;;;;15.33;47.16;101937.69;5000764;28;45227;-65
2022/04/15 04:20:57;;;;;;;;;6.25;6.25;;;;;15.30;46.84;101943.06;5000410;28;45275;-65
2022/04/15 04:23:23;;;;;;;;;6.50;6.50;;;;;15.27;46.93;101939.53;5000524;28;46032;-66
2022/04/15 04:25:48;;;;;;;;;9.25;7.00;;;;;15.24;47.13;101946.66;5000615;28;45244;-65
2022/04/15 04:28:13;;;;;;;;;7.50;7.50;;;;;15.20;47.50;101942.31;5000767;28;45364;-65
2022/04/15 04:30:39;;;;;;;;;7.75;7.00;;;;;15.18;47.28;101950.28;5000388;28;45234;-68
2022/04/15 04:33:04;;;;;;;;;10.25;8.50;;;;;15.14;47.00;101945.03;5000362;28;45274;-66
2022/04/15 04:35:30;;;;;;;;;7.25;7.25;;;;;15.11;47.07;101948.59;5000734;28;45254;-66
2022/04/15 04:37:55;;;;;;;;;9.25;7.75;;;;;15.07;47.35;101954.84;5000680;28;45337;-67
2022/04/15 04:40:20;;;;;;;;;7.50;6.75;;;;;15.04;47.26;101952.22;4999235;28;45611;-65
2022/04/15 04:42:48;;;;;;;;;5.25;4.50;;;;;14.99;47.74;101954.94;5000351;28;46044;-66
2022/04/15 04:45:13;;;;;;;;;9.00;9.00;;;;;14.94;47.32;101949.72;5000077;28;45323;-66
2022/04/15 04:47:41;;;;;;;;;6.25;6.25;;;;;14.92;47.33;101959.44;5000372;28;45361;-66
2022/04/15 04:50:11;;;;;;;;;9.50;8.00;;;;;14.91;47.74;101956.81;5000313;28;45563;-66
2022/04/15 04:52:37;;;;;;;;;6.00;6.00;;;;;14.88;47.50;101960.38;5000073;28;46260;-68
2022/04/15 04:55:04;;;;;;;;;9.00;8.50;;;;;14.83;47.89;101967.50;5000179;28;45323;-68
2022/04/15 04:57:29;;;;;;;;;6.75;6.75;;;;;14.82;47.61;101964.84;4995692;28;45283;-68
2022/04/15 04:59:56;;;;;;;;;7.00;6.00;;;;;14.76;47.67;101964.03;4999788;28;45439;-66
2022/04/15 05:02:22;;;;;;;;;8.75;8.75;;;;;14.76;47.69;101974.63;4998709;28;45373;-66
2022/04/15 05:04:47;;;;;;;;;12.00;10.00;;;;;14.73;47.59;101976.44;5001868;28;45215;-66
2022/04/15 05:07:14;;;;;;;;;7.75;7.75;;;;;14.68;47.60;101970.31;5005544;28;45313;-68
2022/04/15 05:09:41;;;;;;;;;9.00;5.75;;;;;14.69;47.92;101974.72;5006711;28;45221;-66
2022/04/15 05:12:08;;;;;;;;;10.75;9.25;;;;;14.66;47.46;101972.97;5006225;28;45388;-69
2022/04/15 05:14:33;;;;;;;;;10.75;9.50;;;;;14.65;48.05;101983.59;5006208;28;45384;-66
2022/04/15 05:16:58;;;;;;;;;10.50;10.00;;;;;14.63;47.78;101983.59;5006676;28;45302;-68
2022/04/15 05:19:24;;;;;;;;;10.25;9.25;;;;;14.59;47.60;101982.75;5006504;28;45297;-66
2022/04/15 05:21:49;;;;;;;;;8.25;6.00;;;;;14.59;47.97;101982.75;5006252;28;45328;-68
2022/04/15 05:24:14;;;;;;;;;12.50;11.25;;;;;14.55;48.04;101978.38;5005095;28;45448;-68
2022/04/15 05:26:40;;;;;;;;;8.75;7.00;;;;;14.56;48.34;101989.81;5006468;28;45408;-66
2022/04/15 05:29:08;;;;;;;;;10.25;7.50;;;;;14.54;48.05;101983.66;5006201;28;45384;-66
2022/04/15 05:31:33;;;;;;;;;10.25;8.00;;;;;14.53;48.02;101990.75;5006261;28;46047;-68
2022/04/15 05:33:59;;;;;;;;;10.50;9.75;;;;;14.54;48.47;101992.50;5006230;28;45563;-68
2022/04/15 05:36:24;;;;;;;;;8.75;7.25;;;;;14.53;48.40;101995.16;5005164;28;45362;-66
2022/04/15 05:38:49;;;;;;;;;11.00;9.00;;;;;14.54;48.06;102003.09;5006353;28;45283;-66
2022/04/15 05:41:15;;;;;;;;;8.00;8.00;;;;;14.54;48.57;101997.78;5006159;28;45251;-66
2022/04/15 05:43:41;;;;;;;;;11.50;8.75;;;;;14.54;48.51;102003.09;5004688;28;45271;-66
2022/04/15 05:46:06;;;;;;;;;10.25;10.25;;;;;14.55;47.77;102001.28;5006238;28;45183;-66
2022/04/15 05:48:32;;;;;;;;;10.75;10.75;;;;;14.55;48.52;102001.28;5004768;28;45508;-66
2022/04/15 05:50:58;;;;;;;;;10.00;10.00;;;;;14.56;48.21;102006.56;5005731;28;46103;-67
2022/04/15 05:53:23;;;;;;;;;10.75;9.00;;;;;14.56;48.23;101995.13;5006051;28;45310;-66
2022/04/15 05:55:48;;;;;;;;;10.75;8.25;;;;;14.58;48.45;102010.06;5005940;28;45491;-66
2022/04/15 05:58:14;;;;;;;;;10.50;10.50;;;;;14.60;48.59;102000.38;5005935;28;45460;-67
2022/04/15 06:00:39;;;;;;;;;15.00;12.75;;;;;14.58;48.66;101996.84;5005397;28;45404;-66
2022/04/15 06:03:07;;;;;;;;;10.75;10.25;;;;;14.62;48.43;102006.50;5004576;28;45564;-64
2022/04/15 06:05:32;;;;;;;;;12.25;12.00;;;;;14.63;49.05;102007.41;5005398;28;45301;-71
2022/04/15 06:07:58;;;;;;;;;14.75;14.75;;;;;14.63;48.41;102005.63;5006965;28;45596;-60
2022/04/15 06:10:23;;;;;;;;;11.00;11.00;;;;;14.67;48.47;102011.78;5005038;28;45940;-61
2022/04/15 06:12:57;;;;;;;;;14.25;11.75;;;;;14.70;48.43;102018.81;5004472;28;45371;-60
2022/04/15 06:15:24;;;;;;;;;15.00;13.50;;;;;14.71;48.95;102025.84;5005639;28;45324;-62
2022/04/15 06:17:50;;;;;;;;;11.50;11.50;;;;;14.70;48.39;102017.03;5001400;28;45170;-61
2022/04/15 06:20:17;;;;;;;;;13.50;12.00;;;;;14.75;48.69;102028.47;5002000;28;45459;-59
2022/04/15 06:22:43;;;;;;;;;10.75;10.00;;;;;14.80;48.77;102033.69;5001932;28;45400;-61
2022/04/15 06:25:09;;;;;;;;;15.75;13.00;;;;;14.81;49.13;102024.84;5002524;28;45353;-60
2022/04/15 06:27:35;;;;;;;;;29.00;25.25;;;;;14.83;48.72;102025.72;5002023;28;45313;-60
2022/04/15 06:30:00;;;;;;;;;21.75;21.00;;;;;14.88;48.80;102023.91;5001839;28;45771;-62
2022/04/15 06:32:26;;;;;;;;;20.25;13.50;;;;;14.94;49.04;102036.16;5001667;28;45385;-60
2022/04/15 06:34:51;;;;;;;;;13.50;12.75;;;;;14.98;48.60;102039.66;5002305;28;45955;-61
2022/04/15 06:37:16;;;;;;;;;16.00;12.75;;;;;15.00;49.11;102041.38;5001510;28;45395;-70
2022/04/15 06:39:42;;;;;;;;;10.00;9.50;;;;;15.04;48.62;102042.22;5002023;28;45961;-68
2022/04/15 06:42:08;;;;;;;;;12.00;11.75;;;;;15.09;48.89;102043.06;5001640;28;45233;-58
2022/04/15 06:44:36;;;;;;;;;12.75;10.75;;;;;15.13;48.76;102047.41;5002002;28;45291;-60
2022/04/15 06:47:02;;;;;;;;;13.25;10.25;;;;;15.18;48.55;102056.19;5001510;28;45381;-59
2022/04/15 06:49:28;;;;;;;;;9.00;9.00;;;;;15.21;48.81;102050.84;5001809;28;46011;-57
2022/04/15 06:51:53;;;;;;;;;11.00;9.00;;;;;15.26;49.02;102045.50;5000459;28;45421;-59
2022/04/15 06:54:18;;;;;;;;;9.25;9.25;;;;;15.31;48.53;102048.06;5001963;28;45334;-60
2022/04/15 06:56:44;;;;;;;;;11.75;11.75;;;;;15.34;48.52;102048.91;5000783;28;45448;-60
2022/04/15 06:59:09;;;;;;;;;13.00;10.25;;;;;15.34;48.58;102043.59;5000121;28;46497;-60
2022/04/15 07:01:35;;;;;;;;;5.25;5.25;;;;;15.38;48.97;102052.38;5000600;28;45310;-60
2022/04/15 07:04:02;;;;;;;;;8.25;8.25;;;;;15.42;49.07;102054.09;5000712;28;45350;-60
2022/04/15 07:06:28;;;;;;;;;7.75;7.75;;;;;15.44;48.44;102050.56;5001851;28;45452;-59
2022/04/15 07:08:54;;;;;;;;;9.50;9.25;;;;;15.49;49.01;102053.13;5001255;28;46963;-60
2022/04/15 07:11:19;;;;;;;;;12.50;11.00;;;;;15.52;48.60;102058.38;5001683;28;45268;-59
2022/04/15 07:13:45;;;;;;;;;10.25;9.25;;;;;15.55;48.44;102055.69;5007052;28;45227;-59
2022/04/15 07:16:10;;;;;;;;;6.00;6.00;;;;;15.60;48.83;102058.28;5001601;28;45350;-60
2022/04/15 07:18:35;;;;;;;;;11.00;8.25;;;;;15.65;48.94;102069.69;5001568;28;46053;-59
2022/04/15 07:21:01;;;;;;;;;7.25;7.25;;;;;15.66;48.25;102055.53;5000109;28;46052;-60
2022/04/15 07:23:26;;;;;;;;;7.75;7.75;;;;;15.67;48.61;102053.75;5001943;28;45279;-60
2022/04/15 07:25:51;;;;;;;;;13.00;10.25;;;;;15.79;48.78;102068.63;5001431;28;45242;-60
2022/04/15 07:28:17;;;;;;;;;6.25;6.25;;;;;15.83;48.21;102067.69;5000090;28;46109;-60
2022/04/15 07:30:42;;;;;;;;;6.75;6.50;;;;;15.88;48.45;102063.19;5001191;28;45471;-60
2022/04/15 07:33:07;;;;;;;;;6.00;5.00;;;;;15.81;48.62;102042.94;5001486;28;45328;-60
2022/04/15 07:35:33;;;;;;;;;5.75;5.50;;;;;15.95;48.34;102063.97;5001423;28;45377;-60
2022/04/15 07:37:58;;;;;;;;;5.50;5.50;;;;;16.02;48.28;102065.63;5001346;28;45408;-59
2022/04/15 07:40:28;;;;;;;;;7.50;7.50;;;;;16.08;48.47;102063.75;4983529;28;45469;-60
2022/04/15 07:42:57;;;;;;;;;8.00;6.25;;;;;16.13;48.20;102061.03;5001352;28;45318;-60
2022/04/15 07:45:22;;;;;;;;;7.50;5.75;;;;;16.19;48.31;102071.53;5000913;28;45532;-60
2022/04/15 07:47:48;;;;;;;;;5.00;5.00;;;;;16.25;48.36;102068.78;5000761;28;45535;-60
2022/04/15 07:50:13;;;;;;;;;9.00;7.75;;;;;16.30;48.05;102067.81;5001042;28;45421;-60
2022/04/15 07:52:39;;;;;;;;;7.50;4.75;;;;;16.36;48.12;102068.63;5000999;28;45399;-60
2022/04/15 07:55:05;;;;;;;;;6.50;6.50;;;;;16.41;48.31;102065.84;5000783;28;45466;-60
2022/04/15 07:57:30;;;;;;;;;5.00;5.00;;;;;16.48;48.21;102069.28;5001150;28;45351;-60
2022/04/15 07:59:56;;;;;;;;;9.00;7.00;;;;;16.54;48.05;102071.81;5000450;28;45344;-61
2022/04/15 08:02:21;;;;;;;;;8.00;8.00;;;;;16.60;48.48;102063.75;5001005;28;45257;-63
2022/04/15 08:04:46;;;;;;;;;6.75;6.25;;;;;16.66;48.26;102060.13;5000803;28;44755;-60
2022/04/15 08:07:12;;;;;;;;;8.25;4.75;;;;;16.73;48.39;102067.06;4999377;28;46298;-60
2022/04/15 08:09:39;;;;;;;;;7.75;6.00;;;;;16.79;48.35;102060.75;5000810;28;45458;-60
2022/04/15 08:12:05;;;;;;;;;6.75;6.00;;;;;16.87;48.17;102066.78;5000873;28;45230;-60
2022/04/15 08:14:31;;;;;;;;;7.50;7.50;;;;;16.94;48.53;102056.94;5000545;28;45337;-60
2022/04/15 08:16:56;;;;;;;;;9.25;8.25;;;;;17.01;48.02;102067.41;4999416;28;47165;-58
2022/04/15 08:19:22;;;;;;;;;8.00;8.00;;;;;17.10;48.16;102070.81;4994183;28;45218;-57
2022/04/15 08:21:47;;;;;;;;;8.00;8.00;;;;;17.16;48.12;102068.03;5000531;28;45318;-58
2022/04/15 08:24:13;;;;;;;;;7.50;7.50;;;;;17.24;48.18;102073.16;4999358;28;45517;-58
2022/04/15 08:26:39;;;;;;;;;9.50;9.25;;;;;17.31;47.91;102080.13;5000513;28;46194;-58
2022/04/15 08:29:05;;;;;;;;;13.00;8.00;;;;;17.38;48.05;102077.28;5000254;28;45316;-58
2022/04/15 08:31:30;;;;;;;;;10.25;7.75;;;;;17.45;47.88;102075.38;4999316;28;45466;-58
2022/04/15 08:33:56;;;;;;;;;6.00;6.00;;;;;17.53;47.93;102076.09;4998980;28;46235;-58
2022/04/15 08:36:21;;;;;;;;;8.25;6.00;;;;;17.62;47.78;102077.66;4999154;28;46744;-58
2022/04/15 08:38:46;;;;;;;;;6.75;6.25;;;;;17.69;47.95;102071.28;5000190;28;45335;-58
2022/04/15 08:41:13;;;;;;;;;6.00;6.00;;;;;17.76;47.88;102072.03;4998481;28;45242;-58
2022/04/15 08:43:41;;;;;;;;;6.25;6.25;;;;;17.82;47.64;102066.56;4999966;28;45514;-58
2022/04/15 08:46:08;;;;;;;;;7.25;7.00;;;;;17.92;47.73;102066.34;5000260;28;46033;-58
2022/04/15 08:48:34;;;;;;;;;4.50;4.50;;;;;17.98;47.40;102075.06;4999944;28;45346;-57
2022/04/15 08:51:00;;;;;;;;;5.50;5.00;;;;;18.06;47.62;102074.88;4999217;28;45472;-58
2022/04/15 08:53:28;;;;;;;;;8.75;7.25;;;;;18.14;47.37;102077.38;4998648;28;45484;-58
2022/04/15 08:55:53;;;;;;;;;5.25;5.00;;;;;18.22;47.53;102079.84;4998621;28;48184;-58
2022/04/15 08:58:18;;;;;;;;;6.00;4.00;;;;;18.29;47.51;102078.78;4999772;28;45372;-58
2022/04/15 09:00:44;;;;;;;;;8.75;5.00;;;;;18.38;47.21;102083.84;5000146;28;45301;-58
2022/04/15 09:03:09;;;;;;;;;4.75;4.75;;;;;18.46;47.20;102084.50;4999877;28;45401;-59
2022/04/15 09:05:34;;;;;;;;;5.00;4.50;;;;;18.55;47.32;102082.53;4999879;28;47390;-59
2022/04/15 09:08:10;;;;;;;;;3.00;3.00;;;;;18.62;47.39;102079.66;4999880;28;45532;-60
2022/04/15 09:10:39;;;;;;;;;7.00;5.00;;;;;18.73;46.95;102083.81;4998570;28;45383;-59
2022/04/15 09:13:05;;;;;;;;;5.00;4.75;;;;;18.79;47.02;102081.88;4999660;28;45513;-59
2022/04/15 09:15:30;;;;;;;;;6.00;4.50;;;;;18.90;46.97;102089.59;4999717;28;45405;-59
2022/04/15 09:17:59;;;;;;;;;4.25;3.00;;;;;18.98;46.56;102089.38;4999875;28;45349;-59
2022/04/15 09:20:29;;;;;;;;;4.00;4.00;;;;;19.09;46.56;102084.59;4999848;28;45234;-59
2022/04/15 09:22:55;;;;;;;;;5.75;5.00;;;;;19.20;46.80;102089.63;4999492;28;45308;-59
2022/04/15 09:25:26;;;;;;;;;7.00;5.50;;;;;19.30;46.53;102095.56;4999499;28;46614;-58
2022/04/15 09:27:56;;;;;;;;;5.00;5.00;;;;;19.40;47.04;102089.03;4999695;28;45464;-59
2022/04/15 09:30:40;;;;;;;;;5.00;3.50;;;;;19.51;46.80;102093.19;4998265;28;45475;-58
2022/04/15 09:33:10;;;;;;;;;4.75;3.50;;;;;19.61;46.41;102100.84;4985457;28;45311;-59
2022/04/15 09:35:35;;;;;;;;;3.00;3.00;;;;;19.71;46.32;102098.78;4999569;28;45561;-59
2022/04/15 09:38:03;;;;;;;;;3.00;2.25;;;;;19.84;46.52;102101.09;4999751;28;45459;-59
2022/04/15 09:40:31;;;;;;;;;4.25;4.25;;;;;19.96;46.42;102100.69;4999412;28;45390;-58
2022/04/15 09:42:58;;;;;;;;;7.00;4.00;;;;;20.05;45.83;102089.75;4999552;28;45437;-59
2022/04/15 09:45:30;;;;;;;;;3.50;3.50;;;;;20.20;45.68;102095.47;4998975;28;46181;-59
2022/04/15 09:48:04;;;;;;;;;5.25;5.25;;;;;20.30;46.13;102086.22;4999497;28;45313;-59
2022/04/15 09:50:44;;;;;;;;;4.25;4.25;;;;;20.40;45.94;102092.13;4999509;28;45480;-58
2022/04/15 09:53:10;;;;;;;;;3.00;3.00;;;;;20.52;45.85;102090.84;4992171;28;45470;-58
2022/04/15 09:55:39;;;;;;;;;3.00;3.00;;;;;20.64;45.58;102085.09;5002382;28;45895;-59
2022/04/15 09:58:11;;;;;;;;;3.00;3.00;;;;;20.76;45.63;102086.47;5002645;28;45301;-60
2022/04/15 10:00:38;;;;;;;;;3.75;3.75;;;;;20.87;45.86;102080.75;5002562;28;45313;-59
2022/04/15 10:03:08;;;;;;;;;3.00;3.00;;;;;21.01;45.73;102081.09;5002901;28;45335;-59
2022/04/15 10:05:35;;;;;;;;;4.50;3.75;;;;;21.13;45.19;102076.22;5002555;28;47272;-59
2022/04/15 10:08:02;;;;;;;;;4.75;4.00;;;;;21.24;45.51;102068.69;5002583;28;45309;-58
2022/04/15 10:10:32;;;;;;;;;3.00;1.75;;;;;21.39;45.18;102067.22;5001295;28;45513;-58
2022/04/15 10:13:00;;;;;;;;;3.00;3.00;;;;;21.55;45.18;102076.41;5002371;28;45344;-58
2022/04/15 10:15:27;;;;;;;;;3.00;3.00;;;;;21.71;44.99;102079.34;5002303;28;45317;-57
2022/04/15 10:17:52;;;;;;;;;2.50;2.25;;;;;21.89;44.87;102074.19;5002398;28;45310;-57
2022/04/15 10:20:18;;;;;;;;;5.25;5.00;;;;;22.05;44.68;102071.78;4996525;28;45444;-57
2022/04/15 10:22:45;;;;;;;;;4.00;3.75;;;;;22.16;44.36;102068.63;5002172;28;45314;-58
2022/04/15 10:25:10;;;;;;;;;3.25;3.25;;;;;22.27;44.42;102069.03;5002502;28;46189;-58
2022/04/15 10:27:36;;;;;;;;;3.00;3.00;;;;;22.35;44.00;102071.38;5002226;28;45324;-58
2022/04/15 10:30:13;;;;;;;;;3.25;3.25;;;;;22.44;44.56;102075.50;5000988;28;45408;-58
2022/04/15 10:33:05;;;;;;;;;2.00;1.50;;;;;22.61;44.23;102067.59;5000959;28;45208;-57
2022/04/15 10:35:34;;;;;;;;;2.75;2.75;;;;;22.82;44.00;102062.25;5000130;28;45379;-57
2022/04/15 10:38:18;;;;;;;;;1.25;1.25;;;;;23.09;44.20;102064.59;5002296;28;45434;-58
2022/04/15 10:40:44;;;;;;;;;4.00;4.00;;;;;23.32;43.86;102061.75;5000704;28;45264;-57
2022/04/15 10:43:22;;;;;;;;;3.75;3.75;;;;;23.60;43.66;102052.38;5002239;28;45210;-58
2022/04/15 10:45:48;;;;;;;;;4.00;4.00;;;;;23.90;43.76;102067.03;5000591;28;45777;-58
2022/04/15 10:48:13;;;;;;;;;2.00;2.00;;;;;24.20;43.66;102058.41;5002021;28;45626;-57
2022/04/15 10:50:41;;;;;;;;;6.00;4.50;;;;;24.55;43.76;102059.25;5002006;28;45254;-58
2022/04/15 10:53:17;;;;;;;;;2.50;2.50;;;;;24.98;43.99;102061.50;4992306;28;45311;-58
2022/04/15 10:55:45;;;;;;;;;2.25;2.25;;;;;25.45;43.43;102058.03;5001499;28;46219;-58
2022/04/15 10:58:12;;;;;;;;;2.00;2.00;;;;;25.91;43.35;102051.81;5000604;28;45283;-59
2022/04/15 11:03:31;;;;;;;;;3.00;3.00;;;;;26.69;43.00;102052.59;5001306;28;45428;-59
2022/04/15 11:06:02;;;;;;;;;0.75;0.75;;;;;27.03;43.00;102061.28;5001606;28;45288;-59
2022/04/15 11:08:43;;;;;;;;;4.50;4.00;;;;;27.38;42.92;102052.78;5001694;28;45290;-60
2022/04/15 11:11:09;;;;;;;;;2.00;2.00;;;;;27.78;42.42;102058.28;5000532;28;45356;-59
2022/04/15 11:13:40;;;;;;;;;1.75;1.75;;;;;28.20;42.36;102059.06;5001321;28;45451;-59
2022/04/15 11:16:10;;;;;;;;;2.50;1.00;;;;;28.73;42.43;102050.06;5000346;28;47422;-60
2022/04/15 11:18:50;;;;;;;;;1.50;1.50;;;;;29.43;42.00;102056.75;5001632;28;45417;-61
2022/04/15 11:21:31;;;;;;;;;1.75;1.75;;;;;30.18;41.30;102056.66;5001467;28;45247;-61
2022/04/15 11:24:00;;;;;;;;;2.00;0.75;;;;;30.92;42.09;102038.16;5001560;28;45325;-61